createdAt,value
2022-10-02T00:00:18.617Z,13.89
2022-10-02T00:04:26.463Z,13.90
2022-10-02T00:08:06.932Z,13.92
2022-10-02T00:12:00.566Z,13.85
2022-10-02T00:15:54.071Z,13.92
2022-10-02T00:19:41.866Z,13.87
2022-10-02T00:23:32.459Z,13.97
2022-10-02T00:27:40.973Z,13.89
2022-10-02T00:31:43.831Z,13.93
2022-10-02T00:35:43.252Z,14.04
2022-10-02T00:39:17.884Z,14.07
2022-10-02T00:43:11.173Z,13.97
2022-10-02T00:47:17.157Z,13.86
2022-10-02T00:51:03.214Z,13.87
2022-10-02T00:54:55.700Z,13.88
2022-10-02T00:58:53.461Z,13.87
2022-10-02T01:02:42.324Z,13.86
2022-10-02T01:06:29.986Z,13.88
2022-10-02T01:10:17.601Z,13.89
2022-10-02T01:14:05.812Z,13.93
2022-10-02T01:18:02.244Z,13.95
2022-10-02T01:21:50.751Z,13.96
2022-10-02T01:25:50.987Z,13.99
2022-10-02T01:29:38.881Z,13.90
2022-10-02T01:33:21.309Z,13.91
2022-10-02T01:37:08.911Z,13.98
2022-10-02T01:40:59.179Z,13.89
2022-10-02T01:44:46.804Z,13.88
2022-10-02T01:48:34.780Z,13.82
2022-10-02T01:52:37.722Z,13.94
2022-10-02T01:56:37.710Z,13.90
2022-10-02T02:00:35.190Z,13.90
2022-10-02T02:04:21.575Z,13.86
2022-10-02T02:08:09.542Z,13.81
2022-10-02T02:11:59.784Z,13.85
2022-10-02T02:15:53.061Z,13.76
2022-10-02T02:19:46.747Z,13.79
2022-10-02T02:23:34.283Z,13.70
2022-10-02T02:27:21.818Z,13.70
2022-10-02T02:31:09.497Z,13.79
2022-10-02T02:35:03.252Z,13.80
2022-10-02T02:38:53.264Z,13.71
2022-10-02T02:42:40.737Z,13.69
2022-10-02T02:46:28.411Z,13.75
2022-10-02T02:50:15.971Z,13.69
2022-10-02T02:54:09.544Z,13.68
2022-10-02T02:57:57.087Z,13.65
2022-10-02T03:01:43.315Z,13.63
2022-10-02T03:05:31.107Z,13.59
2022-10-02T03:09:17.159Z,13.57
2022-10-02T03:13:07.940Z,13.58
2022-10-02T03:16:58.179Z,13.58
2022-10-02T03:20:51.610Z,13.45
2022-10-02T03:24:49.564Z,13.24
2022-10-02T03:28:56.026Z,13.18
2022-10-02T03:32:41.927Z,13.17
2022-10-02T03:36:29.452Z,13.24
2022-10-02T03:40:17.406Z,13.28
2022-10-02T03:44:05.408Z,13.35
2022-10-02T03:47:53.052Z,13.45
2022-10-02T03:51:40.621Z,13.51
2022-10-02T03:55:28.223Z,13.53
2022-10-02T03:59:15.704Z,13.49
2022-10-02T04:03:03.162Z,13.61
2022-10-02T04:06:53.304Z,13.63
2022-10-02T04:10:53.041Z,13.66
2022-10-02T04:14:47.383Z,13.64
2022-10-02T04:18:40.523Z,13.78
2022-10-02T04:22:43.175Z,13.73
2022-10-02T04:26:30.828Z,13.84
2022-10-02T04:30:24.303Z,13.86
2022-10-02T04:34:14.573Z,13.76
2022-10-02T04:38:10.947Z,13.79
2022-10-02T04:42:09.341Z,13.77
2022-10-02T04:46:08.212Z,13.78
2022-10-02T04:50:08.251Z,13.84
2022-10-02T04:53:59.122Z,13.82
2022-10-02T04:57:49.392Z,13.81
2022-10-02T05:01:35.541Z,13.85
2022-10-02T05:05:26.377Z,13.96
2022-10-02T05:09:16.685Z,13.99
2022-10-02T05:13:04.119Z,13.88
2022-10-02T05:16:51.686Z,13.98
2022-10-02T05:20:46.538Z,13.91
2022-10-02T05:25:01.448Z,13.98
2022-10-02T05:28:46.012Z,13.84
2022-10-02T05:32:42.517Z,13.91
2022-10-02T05:36:44.913Z,13.91
2022-10-02T05:40:44.512Z,13.94
2022-10-02T05:44:41.458Z,13.86
2022-10-02T05:48:29.454Z,13.91
2022-10-02T05:52:25.927Z,13.97
2022-10-02T05:56:28.022Z,13.94
2022-10-02T06:00:19.760Z,14.13
2022-10-02T06:04:03.929Z,14.18
2022-10-02T06:07:51.761Z,14.25
2022-10-02T06:11:46.375Z,14.33
2022-10-02T06:15:34.419Z,14.29
2022-10-02T06:19:22.355Z,14.28
2022-10-02T06:23:00.172Z,14.28
2022-10-02T06:26:55.232Z,14.31
2022-10-02T06:30:42.797Z,14.48
2022-10-02T06:34:30.457Z,14.61
2022-10-02T06:38:28.516Z,14.69
2022-10-02T06:42:34.527Z,14.63
2022-10-02T06:46:34.231Z,14.57
2022-10-02T06:50:32.129Z,14.57
2022-10-02T06:54:28.861Z,14.71
2022-10-02T06:58:08.567Z,14.86
2022-10-02T07:01:43.512Z,14.86
2022-10-02T07:05:38.771Z,15.13
2022-10-02T07:09:26.541Z,15.06
2022-10-02T07:13:35.357Z,14.87
2022-10-02T07:17:26.302Z,15.06
2022-10-02T07:21:26.316Z,14.97
2022-10-02T07:25:15.818Z,15.38
2022-10-02T07:29:23.269Z,15.64
2022-10-02T07:33:30.374Z,15.67
2022-10-02T07:37:36.672Z,15.78
2022-10-02T07:41:42.173Z,15.72
2022-10-02T07:45:41.529Z,15.47
2022-10-02T07:49:35.415Z,15.68
2022-10-02T07:53:41.314Z,15.81
2022-10-02T07:57:29.264Z,15.68
2022-10-02T08:01:23.625Z,15.81
2022-10-02T08:05:11.451Z,15.61
2022-10-02T08:09:00.090Z,15.39
2022-10-02T08:12:48.028Z,15.31
2022-10-02T08:16:36.151Z,15.00
2022-10-02T08:20:30.725Z,15.19
2022-10-02T08:24:36.679Z,15.45
2022-10-02T08:28:23.886Z,15.44
2022-10-02T08:32:12.422Z,15.43
2022-10-02T08:36:01.963Z,15.30
2022-10-02T08:39:58.676Z,15.32
2022-10-02T08:43:59.157Z,15.19
2022-10-02T08:47:44.448Z,15.33
2022-10-02T08:51:39.312Z,15.39
2022-10-02T08:55:39.031Z,15.27
2022-10-02T08:59:36.051Z,15.58
2022-10-02T09:03:48.208Z,15.49
2022-10-02T09:07:51.015Z,15.87
2022-10-02T09:11:57.721Z,16.49
2022-10-02T09:15:45.873Z,16.83
2022-10-02T09:19:42.700Z,16.82
2022-10-02T09:23:47.234Z,16.65
2022-10-02T09:27:45.846Z,16.69
2022-10-02T09:31:58.242Z,16.62
2022-10-02T09:36:04.390Z,16.66
2022-10-02T09:40:07.416Z,16.67
2022-10-02T09:43:55.545Z,16.90
2022-10-02T09:47:47.626Z,16.90
2022-10-02T09:51:44.794Z,17.20
2022-10-02T09:55:38.942Z,17.31
2022-10-02T09:59:42.482Z,17.87
2022-10-02T10:03:49.246Z,18.37
2022-10-02T10:07:48.122Z,18.67
2022-10-02T10:11:40.936Z,18.76
2022-10-02T10:15:35.604Z,18.25
2022-10-02T10:19:28.881Z,18.57
2022-10-02T10:23:24.985Z,18.76
2022-10-02T10:27:32.397Z,18.67
2022-10-02T10:31:26.749Z,18.55
2022-10-02T10:35:31.609Z,18.36
2022-10-02T10:39:23.842Z,18.46
2022-10-02T10:43:43.637Z,18.33
2022-10-02T10:47:32.383Z,18.40
2022-10-02T10:51:23.069Z,18.03
2022-10-02T10:55:15.861Z,18.42
2022-10-02T10:59:08.490Z,18.44
2022-10-02T11:02:56.148Z,18.36
2022-10-02T11:06:46.277Z,18.66
2022-10-02T11:10:50.141Z,18.88
2022-10-02T11:14:59.288Z,18.65
2022-10-02T11:18:46.144Z,18.62
2022-10-02T11:22:44.070Z,18.85
2022-10-02T11:26:29.764Z,19.59
2022-10-02T11:30:29.546Z,20.41
2022-10-02T11:34:20.394Z,19.55
2022-10-02T11:38:29.528Z,19.50
2022-10-02T11:42:32.734Z,19.51
2022-10-02T11:46:36.746Z,19.15
2022-10-02T11:50:23.577Z,18.81
2022-10-02T11:54:34.960Z,18.65
2022-10-02T11:58:54.249Z,18.34
2022-10-02T12:02:57.966Z,18.93
2022-10-02T12:06:58.714Z,18.88
2022-10-02T12:11:08.723Z,19.04
2022-10-02T12:15:06.862Z,19.26
2022-10-02T12:19:01.100Z,19.24
2022-10-02T12:22:54.943Z,18.97
2022-10-02T12:26:50.990Z,19.26
2022-10-02T12:30:38.406Z,19.09
2022-10-02T12:34:29.821Z,19.03
2022-10-02T12:38:14.962Z,19.59
2022-10-02T12:42:15.086Z,20.30
2022-10-02T12:46:09.658Z,20.57
2022-10-02T12:50:10.072Z,20.76
2022-10-02T12:53:58.613Z,20.48
2022-10-02T12:57:51.454Z,19.58
2022-10-02T13:01:54.240Z,19.21
2022-10-02T13:06:01.437Z,18.85
2022-10-02T13:10:14.683Z,18.43
2022-10-02T13:14:23.017Z,17.87
2022-10-02T13:18:07.249Z,17.71
2022-10-02T13:22:16.755Z,17.60
2022-10-02T13:26:19.434Z,17.43
2022-10-02T13:30:20.164Z,17.41
2022-10-02T13:34:15.009Z,17.40
2022-10-02T13:38:09.537Z,17.50
2022-10-02T13:42:10.275Z,17.37
2022-10-02T13:45:58.317Z,17.28
2022-10-02T13:49:58.639Z,17.37
2022-10-02T13:53:59.750Z,17.26
2022-10-02T13:58:08.914Z,17.07
2022-10-02T14:02:02.875Z,16.76
2022-10-02T14:05:59.848Z,16.72
2022-10-02T14:10:09.128Z,16.61
2022-10-02T14:14:01.138Z,16.69
2022-10-02T14:18:06.621Z,16.54
2022-10-02T14:22:06.693Z,16.85
2022-10-02T14:26:10.026Z,17.49
2022-10-02T14:30:00.014Z,17.70
2022-10-02T14:34:09.342Z,17.84
2022-10-02T14:38:06.551Z,18.27
2022-10-02T14:42:04.310Z,18.34
2022-10-02T14:46:04.585Z,18.20
2022-10-02T14:49:57.422Z,17.92
2022-10-02T14:53:54.905Z,18.08
2022-10-02T14:57:44.102Z,18.10
2022-10-02T15:01:41.956Z,17.95
2022-10-02T15:05:28.883Z,17.79
2022-10-02T15:09:35.724Z,17.66
2022-10-02T15:13:18.961Z,17.34
2022-10-02T15:17:12.009Z,17.10
2022-10-02T15:20:59.776Z,16.95
2022-10-02T15:25:09.181Z,16.61
2022-10-02T15:28:59.825Z,16.60
2022-10-02T15:33:11.240Z,16.35
2022-10-02T15:37:05.946Z,16.17
2022-10-02T15:40:58.738Z,16.06
2022-10-02T15:44:50.154Z,16.10
2022-10-02T15:48:43.568Z,15.94
2022-10-02T15:52:50.539Z,15.74
2022-10-02T15:56:40.882Z,15.65
2022-10-02T16:00:31.786Z,15.83
2022-10-02T16:04:20.142Z,15.66
2022-10-02T16:08:17.601Z,15.43
2022-10-02T16:12:22.244Z,15.23
2022-10-02T16:16:25.507Z,15.17
2022-10-02T16:20:20.082Z,15.04
2022-10-02T16:24:08.422Z,15.01
2022-10-02T16:28:06.947Z,15.11
2022-10-02T16:32:03.937Z,15.06
2022-10-02T16:36:27.404Z,15.06
2022-10-02T16:40:26.924Z,15.14
2022-10-02T16:44:21.533Z,15.07
2022-10-02T16:48:09.423Z,14.96
2022-10-02T16:52:14.910Z,14.82
2022-10-02T16:56:14.114Z,14.74
2022-10-02T17:00:22.817Z,14.66
2022-10-02T17:04:07.726Z,14.60
2022-10-02T17:08:03.318Z,14.52
2022-10-02T17:11:46.253Z,14.38
2022-10-02T17:15:59.939Z,14.28
2022-10-02T17:19:36.381Z,14.24
2022-10-02T17:23:44.817Z,14.19
2022-10-02T17:27:44.725Z,14.14
2022-10-02T17:31:42.153Z,14.16
2022-10-02T17:35:35.029Z,13.98
2022-10-02T17:39:41.552Z,13.92
2022-10-02T17:43:55.928Z,13.94
2022-10-02T17:47:59.156Z,13.85
2022-10-02T17:51:55.186Z,13.78
2022-10-02T17:55:45.440Z,13.73
2022-10-02T17:59:32.293Z,13.64
2022-10-02T18:03:19.776Z,13.61
2022-10-02T18:07:11.406Z,13.59
2022-10-02T18:11:02.364Z,13.51
2022-10-02T18:15:17.614Z,13.41
2022-10-02T18:19:18.858Z,13.32
2022-10-02T18:22:49.648Z,13.38
2022-10-02T18:26:50.388Z,13.38
2022-10-02T18:30:30.754Z,13.39
2022-10-02T18:33:59.085Z,13.40
2022-10-02T18:37:46.469Z,13.42
2022-10-02T18:41:33.336Z,13.40
2022-10-02T18:45:19.288Z,13.36
2022-10-02T18:49:20.576Z,13.21
2022-10-02T18:52:49.819Z,13.11
2022-10-02T18:56:53.217Z,13.07
2022-10-02T19:00:21.146Z,12.97
2022-10-02T19:03:28.162Z,12.89
2022-10-02T19:07:15.931Z,12.72
2022-10-02T19:11:12.522Z,12.63
2022-10-02T19:15:03.612Z,12.48
2022-10-02T19:18:55.685Z,12.36
2022-10-02T19:22:52.612Z,12.28
2022-10-02T19:25:54.483Z,12.24
2022-10-02T19:29:32.974Z,12.21
2022-10-02T19:33:12.904Z,12.12
2022-10-02T19:36:57.141Z,11.99
2022-10-02T19:41:02.351Z,11.89
2022-10-02T19:45:00.517Z,11.86
2022-10-02T19:48:22.111Z,11.86
2022-10-02T19:52:16.674Z,11.80
2022-10-02T19:55:37.432Z,11.67
2022-10-02T19:59:08.029Z,11.62
2022-10-02T20:02:22.830Z,11.57
2022-10-02T20:06:11.345Z,11.52
2022-10-02T20:09:55.057Z,11.47
2022-10-02T20:13:46.101Z,11.50
2022-10-02T20:17:28.104Z,11.44
2022-10-02T20:21:15.920Z,11.35
2022-10-02T20:25:06.578Z,11.29
2022-10-02T20:28:50.266Z,11.32
2022-10-02T20:32:41.324Z,11.28
2022-10-02T20:36:34.639Z,11.25
2022-10-02T20:40:22.309Z,11.19
2022-10-02T20:44:08.490Z,11.23
2022-10-02T20:48:07.983Z,11.23
2022-10-02T20:51:59.040Z,11.40
2022-10-02T20:55:59.000Z,11.58
2022-10-02T20:59:47.418Z,11.82
2022-10-02T21:03:39.997Z,11.92
2022-10-02T21:07:43.072Z,12.06
2022-10-02T21:11:51.816Z,12.14
2022-10-02T21:16:00.179Z,12.27
2022-10-02T21:19:39.681Z,12.43
2022-10-02T21:23:48.443Z,12.45
2022-10-02T21:27:54.333Z,12.64
2022-10-02T21:31:57.123Z,12.69
2022-10-02T21:35:42.826Z,12.73
2022-10-02T21:39:48.384Z,12.68
2022-10-02T21:43:51.005Z,12.90
2022-10-02T21:47:39.192Z,12.86
2022-10-02T21:51:24.943Z,12.91
2022-10-02T21:55:20.028Z,12.70
2022-10-02T21:59:07.527Z,12.67
2022-10-02T22:03:10.285Z,12.66
2022-10-02T22:07:02.201Z,12.64
2022-10-02T22:10:50.917Z,12.63
2022-10-02T22:14:38.612Z,12.51
2022-10-02T22:18:26.427Z,12.39
2022-10-02T22:22:19.897Z,12.49
2022-10-02T22:26:25.493Z,12.42
2022-10-02T22:30:34.412Z,12.35
2022-10-02T22:34:33.615Z,12.40
2022-10-02T22:38:29.789Z,12.24
2022-10-02T22:42:17.399Z,12.18
2022-10-02T22:46:22.415Z,12.11
2022-10-02T22:50:28.439Z,12.08
2022-10-02T22:54:18.786Z,11.95
2022-10-02T22:58:05.465Z,11.82
2022-10-02T23:02:01.945Z,11.78
2022-10-02T23:05:55.665Z,11.74
2022-10-02T23:09:52.013Z,11.67
2022-10-02T23:13:39.745Z,11.54
2022-10-02T23:17:27.498Z,11.46
2022-10-02T23:21:44.598Z,11.42
2022-10-02T23:25:36.230Z,11.43
2022-10-02T23:29:32.334Z,11.32
2022-10-02T23:33:22.927Z,11.33
2022-10-02T23:37:16.211Z,11.33
2022-10-02T23:41:10.832Z,11.33
2022-10-02T23:45:10.323Z,11.32
2022-10-02T23:49:00.867Z,11.35
2022-10-02T23:52:54.380Z,11.37
2022-10-02T23:57:00.601Z,11.41
